Overton, Nevada Weather observations

Data are for observation ending at time listed.
 Day   Time    Ave.   Ave.  Ave.  Vector   Max.   Stn.    Total    Solar   Ave.  
  of    of     Air    Rel.  Wind   Wind    Wind   Baro.  Precip.   Rad.    Soil  
Year   Day     Temp.  Hum.  Speed  Dir.    Gust   Pres.                    Temp. 
2020   (PST)    F      %     mph   deg.    mph     mb.     in.     W/m2     F   
------------------------------------------------------------------------------
 216    1:00   75.9    26    2.2   302      4.5   963.2    0.00       0    84.3
 216    1:10   74.8    28    1.2   307      2.1   963.2    0.00       0    83.9
 216    1:20   74.4    28    1.0   325      1.8   963.2    0.00       0    83.4
 216    1:30   75.4    25    1.9   255      3.9   963.3    0.00       0    83.3
 216    1:40   75.1    25    1.4   304      3.2   963.4    0.00       0    82.9
 216    1:50   72.6    30    2.3   330      3.0   963.4    0.00       0    82.3
 216    2:00   71.1    32    2.7   332      4.3   963.4    0.00       0    81.7
 216    2:10   70.5    32    2.2   328      3.6   963.4    0.00       0    81.4
 216    2:20   71.0    31    0.3   306      1.8   963.4    0.00       0    81.5
 216    2:30   71.3    30    2.3   309      3.5   963.4    0.00       0    81.2
 216    2:40   71.9    29    1.8   296      4.0   963.5    0.00       0    81.4
 216    2:50   74.0    25    3.3   299      4.9   963.5    0.00       0    81.4
 216    3:00   73.6    25    2.0   293      4.3   963.6    0.00       0    81.1
 216    3:10   72.8    25    1.7   276      3.4   963.6    0.00       0    80.8
 216    3:20   74.0    23    1.6   281      4.5   963.7    0.00       0    80.8
 216    3:30   75.0    22    1.3   282      4.4   963.8    0.00       0    81.0
 216    3:40   74.6    23    1.1   300      2.3   963.9    0.00       0    80.7
 216    3:50   71.7    27    1.6   342      2.3   964.0    0.00       0    79.7
 216    4:00   70.2    29    2.1   312      3.1   964.0    0.00       0    79.5
 216    4:10   69.9    29    1.0   284      3.0   964.1    0.00       0    79.3
 216    4:20   71.2    26    0.8   276      3.2   964.2    0.00       0    78.9
 216    4:30   69.1    29    1.1   286      2.9   964.3    0.00       0    78.6
 216    4:40   68.5    31    1.4   332      2.6   964.4    0.00       0    78.1
 216    4:50   67.3    33    2.0   327      4.5   964.4    0.00       3    77.6
 216    5:00   66.5    32    2.0   307      4.6   964.4    0.00       8    77.7
 216    5:10   68.5    30    1.2   301      3.6   964.6    0.00      19    78.3
 216    5:20   68.2    31    1.9   298      5.5   964.6    0.00      34    78.6
 216    5:30   71.3    25    2.4   275      5.3   964.9    0.00      50    80.1
 216    5:40   74.0    22    1.3   262      3.1   965.1    0.00      77    81.6
 216    5:50   74.6    23    1.5   303      3.7   965.3    0.00     105    82.9
 216    6:00   74.4    24    2.3   317      3.4   965.5    0.00     130    84.0
 216    6:10   75.2    22    2.0   304      4.4   965.7    0.00     155    85.6
 216    6:20   77.5    19    1.9   293      4.2   965.9    0.00     181    87.1
 216    6:30   78.5    18    2.0   289      4.1   966.2    0.00     203    88.7
 216    6:40   79.8    18    1.8   269      3.6   966.5    0.00     230    89.6
 216    6:50   80.5    18    1.5   262      3.5   966.7    0.00     266    92.5
 216    7:00   81.9    16    2.3   276      5.2   966.9    0.00     296    94.7
 216    7:10   83.4    15    2.7   297      6.4   967.1    0.00     325    96.3
 216    7:20   84.1    15    3.7   322      6.1   967.3    0.00     362    97.6
 216    7:30   85.2    14    4.1   323      7.1   967.4    0.00     397    99.7
 216    7:40   86.8    14    3.4   342      5.3   967.5    0.00     428    102.6
 216    7:50   88.2    13    4.1   339      6.0   967.6    0.00     457    104.4
 216    8:00   89.4    12    3.4   344      5.6   967.7    0.00     482    106.6
 216    8:10   90.6    12    3.2   332      6.0   967.9    0.00     513    109.0
 216    8:20   91.2    11    3.1   332      5.3   968.0    0.00     538    111.2
 216    8:30   92.4    11    2.3   329      4.5   968.2    0.00     561    114.1
 216    8:40   93.4    11    1.3   338      2.9   968.2    0.00     575    117.2
 216    8:50   95.0    11    0.8    36      2.9   968.3    0.00     194    119.9
 216    9:00   95.5    10    1.5    94      2.8   968.4    0.00     354    121.5
 216    9:10   96.0    10    0.7   166      2.6   968.5    0.00     178    122.3
 216    9:20   97.1     9    1.2   116      3.2   968.6    0.00     635    125.0
 216    9:30   97.8     9    0.6    79      3.0   968.7    0.00     684    127.6
 216    9:40   98.7    10    1.2   127      3.1   968.8    0.00     602    127.0
 216    9:50   98.9    10    0.8   138      2.3   968.7    0.00     583    129.5
 216   10:00   99.5    10    0.6   162      3.7   968.8    0.00     734    131.6
 216   10:10  100.1    10    1.4   162      4.5   968.7    0.00     514    132.3
 216   10:20  100.6    10    1.0   154      3.7   968.8    0.00     377    133.6
 216   10:30  101.6    10    1.0   183      3.8   968.8    0.00     785    134.9
 216   10:40  102.3    10    1.3   136      5.7   968.7    0.00     793    136.5
 216   10:50  103.0    10    2.7    91      8.0   968.7    0.00     802    137.7
 216   11:00  103.0    10    3.2   138      9.4   968.7    0.00     817    137.4
 216   11:10  103.6    10    2.3   167      5.9   968.6    0.00     824    138.0
 216   11:20  104.2    10    2.3    93      5.7   968.5    0.00     816    139.6
 216   11:30  104.8    11    2.7   101      6.4   968.4    0.00     816    140.1
 216   11:40  105.2    10    2.8   133      6.4   968.3    0.00     820    140.2
 216   11:50  105.7    10    3.6    88      9.1   968.1    0.00     815    141.5
 216   12:00  106.4    10    5.2   125      9.6   968.1    0.00     830    139.6
 216   12:10  106.6     9    3.1   158      7.3   967.9    0.00     849    141.6
 216   12:20  107.2     9    4.6   158     10.9   967.8    0.00     863    141.2
 216   12:30  107.4     8    4.3   209      8.6   967.7    0.00     857    141.0
 216   12:40  109.0     7    1.3   225      4.5   967.6    0.00     857    145.5
 216   12:50  109.5     7    3.9   144     10.3   967.4    0.00     847    142.8
 216   13:00  109.3     7    4.2   137     10.3   967.3    0.00     842    134.7
 216   13:10  109.0     8    4.4   148     10.2   967.2    0.00     836    130.6
 216   13:20  109.4     6    4.5   148      9.2   967.1    0.00     831    126.6
 216   13:30  109.4     6    5.1   171     13.5   967.0    0.00     810    123.4
 216   13:40  109.1     5    3.7   181     10.5   966.9    0.00     799    121.5
 216   13:50  109.6     5    5.1   211     10.8   966.8    0.00     778    120.6
 216   14:00  109.8     6    3.9   194      9.1   966.6    0.00     759    119.8
 216   14:10  109.8     6    6.5   185     12.9   966.5    0.00     749    119.2
 216   14:20  109.6     6    4.9   197     12.0   966.4    0.00     737    118.7
 216   14:30  110.4     6    3.8   220      9.1   966.3    0.00     690    118.4
 216   14:40  110.8     6    4.4   211     12.3   966.3    0.00     680    118.4
 216   14:50  110.4     6    5.3   200     11.8   966.2    0.00     647    117.9
 216   15:00  110.9     6    3.5   185     11.6   966.2    0.00     624    117.6
 216   15:10  111.1     6    3.4   168      7.2   966.0    0.00     605    116.9
 216   15:20  111.5     6    2.2   144      5.6   965.9    0.00     569    116.4
 216   15:30  111.1     6    6.2   172     11.6   965.8    0.00     550    116.4
 216   15:40  110.3     6    6.4   175     11.5   965.7    0.00     503    115.7
 216   15:50  110.4     7    4.7   150      8.1   965.6    0.00     489    115.0
 216   16:00  110.9     7    3.2   122      8.1   965.5    0.00     459    114.4
 216   16:10  110.6     7    3.1   103      7.6   965.3    0.00     427    113.8
 216   16:20  110.9     6    4.9   160      9.1   965.1    0.00     389    114.0
 216   16:30  110.5     6    4.1   173      9.9   965.0    0.00     359    113.5
 216   16:40  110.7     6    3.3   178      5.9   964.8    0.00     333    113.1
 216   16:50  110.8     6    3.1   141      7.2   964.8    0.00     302    112.4
 216   17:00  110.4     5    4.3   169      7.5   964.6    0.00     273    112.1
 216   17:10  110.4     5    3.5   158      7.7   964.5    0.00     243    111.6
 216   17:20  110.2     5    4.2   187      8.0   964.4    0.00     211    112.0
 216   17:30  110.0     5    4.0   190      7.3   964.3    0.00     182    112.0
 216   17:40  109.7     5    3.6   183      5.4   964.2    0.00     121    110.5
 216   17:50  108.3     6    3.2   166      6.1   964.1    0.00      55    109.2
 216   18:00  107.5     7    1.8   111      4.8   963.9    0.00      25    107.6
 216   18:10  106.2     8    0.6   148      2.9   963.7    0.00      40    106.5
 216   18:20  104.6     9    1.3   146      3.4   963.5    0.00      28    105.5
 216   18:30  103.2    10    0.4   131      2.3   963.4    0.00      20    104.5
 216   18:40  101.6    11    1.1   107      2.4   963.1    0.00      12    103.2
 216   18:50   99.9    11    0.7   109      2.0   963.0    0.00       4    101.9
 216   19:00   98.9    11    1.5   101      3.1   962.8    0.00       3    101.6
 216   19:10   98.3    11    1.3   100      2.6   962.8    0.00       0    100.8
 216   19:20   97.1    12    1.5   105      3.8   962.8    0.00       0    100.0
 216   19:30   96.7    12    0.4   129      2.0   962.7    0.00       0    99.2
 216   19:40   95.7    11    1.4   133      3.7   962.7    0.00       0    98.8
 216   19:50   96.2    11    2.3   122      4.2   962.7    0.00       0    98.6
 216   20:00   96.1    11    1.7   123      4.3   962.8    0.00       0    98.1
 216   20:10   95.9    11    2.2   131      5.3   962.9    0.00       0    97.8
 216   20:20   95.6    11    2.6   126      5.6   962.9    0.00       0    97.4
 216   20:30   92.9    12    0.8    26      2.3   963.0    0.00       0    95.8
 216   20:40   88.8    15    0.8    84      2.5   962.9    0.00       0    94.8
 216   20:50   90.4    13    1.8   130      5.0   962.9    0.00       0    94.9
 216   21:00   93.9    11    1.6   131      4.4   962.9    0.00       0    95.5
 216   21:10   91.6    13    0.4   172      2.1   962.9    0.00       0    94.0
 216   21:20   86.9    16    0.3   298      1.5   962.9    0.00       0    93.1
 216   21:30   84.9    18    1.0   296      3.2   962.9    0.00       0    92.1
 216   21:40   81.2    23    1.3   317      3.4   962.8    0.00       0    90.8
 216   21:50   80.8    23    1.8   296      4.1   962.8    0.00       0    90.5
 216   22:00   81.8    20    2.4   294      5.6   962.8    0.00       0    90.2
 216   22:10   81.7    19    2.9   302      4.6   962.8    0.00       0    90.0
 216   22:20   80.1    23    1.9   317      3.1   962.8    0.00       0    89.2
 216   22:30   78.9    24    2.0   322      3.0   962.7    0.00       0    88.6
 216   22:40   80.6    20    2.0   302      5.4   962.6    0.00       0    89.1
 216   22:50   82.3    18    1.4   296      3.2   962.6    0.00       0    88.8
 216   23:00   80.1    21    1.3   312      2.4   962.7    0.00       0    88.0
 216   23:10   78.8    22    2.2   296      3.4   962.7    0.00       0    87.6
 216   23:20   78.1    22    0.8   301      1.8   962.6    0.00       0    87.1
 216   23:30   77.1    24    1.3   304      2.1   962.5    0.00       0    86.5
 216   23:40   75.8    25    2.5   323      3.7   962.5    0.00       0    85.9
 216   23:50   75.1    25    1.9   316      3.8   962.5    0.00       0    85.4
 217    0:00   75.2    26    1.7   329      2.9   962.4    0.00       0    85.3
 217    0:10   75.7    25    1.3   310      3.4   962.5    0.00       0    85.2
 217    0:20   74.8    26    2.7   308      4.0   962.5    0.00       0    84.6
 217    0:30   76.6    22    3.1   284      4.9   962.4    0.00       0    84.5
 217    0:40   77.0    21    2.9   299      4.1   962.4    0.00       0    84.5
 217    0:50   75.0    24    2.1   305      3.5   962.4    0.00       0    83.9

Return to Overton, Nevada graphs page.


Western Regional Climate Center,wrcc@dri.edu